createdAt,value
2022-12-25T00:01:51.570Z,90.78
2022-12-25T00:06:56.786Z,91.18
2022-12-25T00:12:00.268Z,90.85
2022-12-25T00:17:04.232Z,91.18
2022-12-25T00:22:09.399Z,91.30
2022-12-25T00:27:13.053Z,91.54
2022-12-25T00:32:17.137Z,91.72
2022-12-25T00:37:22.050Z,91.31
2022-12-25T00:42:27.044Z,91.64
2022-12-25T00:47:31.035Z,91.23
2022-12-25T00:52:36.281Z,91.22
2022-12-25T00:57:39.856Z,91.27
2022-12-25T01:02:43.413Z,91.32
2022-12-25T01:07:48.642Z,91.43
2022-12-25T01:12:53.110Z,91.51
2022-12-25T01:17:56.630Z,91.70
2022-12-25T01:23:01.474Z,91.84
2022-12-25T01:28:05.179Z,91.73
2022-12-25T01:33:08.607Z,91.35
2022-12-25T01:38:13.452Z,91.40
2022-12-25T01:43:24.557Z,91.29
2022-12-25T01:48:31.819Z,91.10
2022-12-25T01:53:37.114Z,91.83
2022-12-25T01:58:40.669Z,91.65
2022-12-25T02:03:44.191Z,91.79
2022-12-25T02:08:49.128Z,91.55
2022-12-25T02:13:53.103Z,91.63
2022-12-25T02:19:04.588Z,91.67
2022-12-25T02:24:27.782Z,91.41
2022-12-25T02:29:39.427Z,91.23
2022-12-25T02:34:49.414Z,90.95
2022-12-25T02:40:02.024Z,91.66
2022-12-25T02:45:26.627Z,90.95
2022-12-25T02:50:47.655Z,91.12
2022-12-25T02:56:09.609Z,91.48
2022-12-25T03:01:35.302Z,91.60
2022-12-25T03:06:46.839Z,91.49
2022-12-25T03:11:58.632Z,91.19
2022-12-25T03:17:03.921Z,90.75
2022-12-25T03:22:36.912Z,90.75
2022-12-25T03:27:43.264Z,90.63
2022-12-25T03:32:58.882Z,91.13
2022-12-25T03:38:33.073Z,91.18
2022-12-25T03:44:03.903Z,90.91
2022-12-25T03:49:40.429Z,91.08
2022-12-25T03:55:04.482Z,91.25
2022-12-25T04:00:26.797Z,90.82
2022-12-25T04:05:48.851Z,91.20
2022-12-25T04:11:09.722Z,90.55
2022-12-25T04:16:30.646Z,90.47
2022-12-25T04:21:52.914Z,90.27
2022-12-25T04:27:14.037Z,90.10
2022-12-25T04:32:34.978Z,90.36
2022-12-25T04:37:39.807Z,90.03
2022-12-25T04:42:43.263Z,89.83
2022-12-25T04:47:46.729Z,90.13
2022-12-25T04:52:51.515Z,90.18
2022-12-25T04:57:54.881Z,91.03
2022-12-25T05:02:59.391Z,91.10
2022-12-25T05:08:05.921Z,90.75
2022-12-25T05:13:09.395Z,90.85
2022-12-25T05:18:13.077Z,91.20
2022-12-25T05:23:17.935Z,90.77
2022-12-25T05:28:21.646Z,90.71
2022-12-25T05:33:25.016Z,90.97
2022-12-25T05:38:29.873Z,90.83
2022-12-25T05:43:33.505Z,90.46
2022-12-25T05:48:38.669Z,90.38
2022-12-25T05:53:44.440Z,90.68
2022-12-25T05:58:48.349Z,90.46
2022-12-25T06:03:52.066Z,90.00
2022-12-25T06:08:57.352Z,89.90
2022-12-25T06:14:01.268Z,90.18
2022-12-25T06:19:04.716Z,90.52
2022-12-25T06:24:09.872Z,90.07
2022-12-25T06:29:13.796Z,88.77
2022-12-25T06:34:17.674Z,88.05
2022-12-25T06:39:22.929Z,87.74
2022-12-25T06:44:26.443Z,87.56
2022-12-25T06:49:30.049Z,87.42
2022-12-25T06:54:34.868Z,86.98
2022-12-25T06:59:38.357Z,87.01
2022-12-25T07:04:44.031Z,86.67
2022-12-25T07:09:48.843Z,86.25
2022-12-25T07:14:55.522Z,85.92
2022-12-25T07:19:58.909Z,85.92
2022-12-25T07:25:03.791Z,85.73
2022-12-25T07:30:08.994Z,85.93
2022-12-25T07:35:12.455Z,85.57
2022-12-25T07:40:17.490Z,85.57
2022-12-25T07:45:20.879Z,85.66
2022-12-25T07:50:24.671Z,85.08
2022-12-25T07:55:29.918Z,84.54
2022-12-25T08:00:33.437Z,84.17
2022-12-25T08:05:37.177Z,83.36
2022-12-25T08:10:46.695Z,83.25
2022-12-25T08:15:50.745Z,81.98
2022-12-25T08:20:54.505Z,80.54
2022-12-25T08:26:05.050Z,80.12
2022-12-25T08:31:11.259Z,78.95
2022-12-25T08:36:15.158Z,78.08
2022-12-25T08:41:20.933Z,77.90
2022-12-25T08:46:24.671Z,77.23
2022-12-25T08:51:28.556Z,76.76
2022-12-25T08:56:33.743Z,75.62
2022-12-25T09:01:37.231Z,74.81
2022-12-25T09:06:40.711Z,74.42
2022-12-25T09:11:45.883Z,72.89
2022-12-25T09:16:51.621Z,71.25
2022-12-25T09:21:55.259Z,70.44
2022-12-25T09:27:00.277Z,70.42
2022-12-25T09:32:03.755Z,70.36
2022-12-25T09:37:07.192Z,69.22
2022-12-25T09:42:18.213Z,68.41
2022-12-25T09:47:24.714Z,67.08
2022-12-25T09:52:36.521Z,66.88
2022-12-25T09:57:41.722Z,66.41
2022-12-25T10:03:27.949Z,66.39
2022-12-25T10:08:54.851Z,65.25
2022-12-25T10:14:14.821Z,65.85
2022-12-25T10:19:36.395Z,64.42
2022-12-25T10:24:45.135Z,64.63
2022-12-25T10:29:55.107Z,63.92
2022-12-25T10:34:58.912Z,64.38
2022-12-25T10:40:02.380Z,63.94
2022-12-25T10:45:10.647Z,63.24
2022-12-25T10:50:20.794Z,63.92
2022-12-25T10:55:28.682Z,63.57
2022-12-25T11:00:34.911Z,62.18
2022-12-25T11:05:38.399Z,61.93
2022-12-25T11:10:44.154Z,62.38
2022-12-25T11:15:50.727Z,62.06
2022-12-25T11:20:56.520Z,62.35
2022-12-25T11:26:02.464Z,62.18
2022-12-25T11:31:10.308Z,63.79
2022-12-25T11:36:19.683Z,63.67
2022-12-25T11:41:28.156Z,63.67
2022-12-25T11:46:41.364Z,64.85
2022-12-25T11:51:48.916Z,64.78
2022-12-25T11:56:52.568Z,65.19
2022-12-25T12:02:03.007Z,65.80
2022-12-25T12:07:15.860Z,65.65
2022-12-25T12:12:28.362Z,65.30
2022-12-25T12:17:33.804Z,66.56
2022-12-25T12:22:37.675Z,66.56
2022-12-25T12:27:42.564Z,68.30
2022-12-25T12:32:52.320Z,67.45
2022-12-25T12:37:58.806Z,67.91
2022-12-25T12:43:02.814Z,67.42
2022-12-25T12:48:17.934Z,68.72
2022-12-25T12:53:32.256Z,69.62
2022-12-25T12:58:38.482Z,69.45
2022-12-25T13:04:07.607Z,70.44
2022-12-25T13:09:27.017Z,70.92
2022-12-25T13:14:30.533Z,71.97
2022-12-25T13:19:37.120Z,72.88
2022-12-25T13:24:40.959Z,73.33
2022-12-25T13:29:44.433Z,72.82
2022-12-25T13:35:01.007Z,72.42
2022-12-25T13:40:08.009Z,72.38
2022-12-25T13:45:23.501Z,72.40
2022-12-25T13:50:31.380Z,72.29
2022-12-25T13:55:35.465Z,72.27
2022-12-25T14:00:41.751Z,72.85
2022-12-25T14:05:46.944Z,74.01
2022-12-25T14:10:54.358Z,74.45
2022-12-25T14:15:59.310Z,74.41
2022-12-25T14:21:07.512Z,75.49
2022-12-25T14:26:16.874Z,74.98
2022-12-25T14:31:22.245Z,75.02
2022-12-25T14:36:27.952Z,74.85
2022-12-25T14:41:37.917Z,74.83
2022-12-25T14:46:41.688Z,75.61
2022-12-25T14:51:46.920Z,75.63
2022-12-25T14:56:52.655Z,74.74
2022-12-25T15:01:58.778Z,76.13
2022-12-25T15:07:09.735Z,75.28
2022-12-25T15:12:13.752Z,75.30
2022-12-25T15:17:27.209Z,76.58
2022-12-25T15:22:54.143Z,76.70
2022-12-25T15:27:56.338Z,77.20
2022-12-25T15:33:00.031Z,76.92
2022-12-25T15:38:04.801Z,78.03
2022-12-25T15:43:20.878Z,78.42
2022-12-25T15:48:34.525Z,78.28
2022-12-25T15:53:39.665Z,78.16
2022-12-25T15:58:43.405Z,77.83
2022-12-25T16:03:47.546Z,77.91
2022-12-25T16:08:52.437Z,77.51
2022-12-25T16:13:55.867Z,78.27
2022-12-25T16:18:59.540Z,78.51
2022-12-25T16:24:05.135Z,79.06
2022-12-25T16:29:08.774Z,78.84
2022-12-25T16:34:12.360Z,78.82
2022-12-25T16:39:17.193Z,78.49
2022-12-25T16:44:23.369Z,78.76
2022-12-25T16:49:26.814Z,77.90
2022-12-25T16:54:32.037Z,77.79
2022-12-25T16:59:36.099Z,77.45
2022-12-25T17:04:40.869Z,77.68
2022-12-25T17:09:48.608Z,77.54
2022-12-25T17:14:53.527Z,76.41
2022-12-25T17:19:57.589Z,77.09
2022-12-25T17:25:02.746Z,76.60
2022-12-25T17:30:08.015Z,77.48
2022-12-25T17:35:11.606Z,78.04
2022-12-25T17:40:17.301Z,77.83
2022-12-25T17:45:21.225Z,78.61
2022-12-25T17:50:25.821Z,77.87
2022-12-25T17:55:34.405Z,77.24
2022-12-25T18:00:39.529Z,77.00
2022-12-25T18:05:43.131Z,78.05
2022-12-25T18:10:48.123Z,78.12
2022-12-25T18:15:52.032Z,78.86
2022-12-25T18:20:55.487Z,79.29
2022-12-25T18:26:04.843Z,78.67
2022-12-25T18:31:10.811Z,79.63
2022-12-25T18:36:16.140Z,80.65
2022-12-25T18:41:22.360Z,81.13
2022-12-25T18:46:27.531Z,81.88
2022-12-25T18:51:36.568Z,82.74
2022-12-25T18:56:42.080Z,83.43
2022-12-25T19:01:46.417Z,83.80
2022-12-25T19:06:50.498Z,83.97
2022-12-25T19:11:56.964Z,83.76
2022-12-25T19:17:00.745Z,83.64
2022-12-25T19:22:04.222Z,82.76
2022-12-25T19:27:10.141Z,83.35
2022-12-25T19:32:13.658Z,83.33
2022-12-25T19:37:17.334Z,83.35
2022-12-25T19:42:22.213Z,83.90
2022-12-25T19:47:25.753Z,83.88
2022-12-25T19:52:29.488Z,83.73
2022-12-25T19:57:34.412Z,83.73
2022-12-25T20:02:37.994Z,83.05
2022-12-25T20:07:41.554Z,82.73
2022-12-25T20:12:46.524Z,82.61
2022-12-25T20:17:49.953Z,81.53
2022-12-25T20:22:53.447Z,82.07
2022-12-25T20:27:58.587Z,82.09
2022-12-25T20:33:02.002Z,82.88
2022-12-25T20:38:05.725Z,82.50
2022-12-25T20:43:11.031Z,82.39
2022-12-25T20:48:15.153Z,81.65
2022-12-25T20:53:19.727Z,81.12
2022-12-25T20:58:24.852Z,80.70
2022-12-25T21:03:28.345Z,81.13
2022-12-25T21:08:32.176Z,81.40
2022-12-25T21:13:38.760Z,80.93
2022-12-25T21:18:42.289Z,80.78
2022-12-25T21:23:46.732Z,81.52
2022-12-25T21:28:54.977Z,82.38
2022-12-25T21:33:59.443Z,82.64
2022-12-25T21:39:05.242Z,82.95
2022-12-25T21:44:10.297Z,82.58
2022-12-25T21:49:34.049Z,82.99
2022-12-25T21:54:37.934Z,82.67
2022-12-25T21:59:42.788Z,82.94
2022-12-25T22:04:46.227Z,82.77
2022-12-25T22:09:51.669Z,82.79
2022-12-25T22:15:02.772Z,82.43
2022-12-25T22:20:11.089Z,82.05
2022-12-25T22:25:16.127Z,81.88
2022-12-25T22:30:22.861Z,82.68
2022-12-25T22:35:26.373Z,82.62
2022-12-25T22:40:29.919Z,82.86
2022-12-25T22:45:34.861Z,82.61
2022-12-25T22:50:38.405Z,82.43
2022-12-25T22:55:47.120Z,83.10
2022-12-25T23:00:52.037Z,83.22
2022-12-25T23:05:56.523Z,83.00
2022-12-25T23:11:03.023Z,83.12
2022-12-25T23:16:14.057Z,83.04
2022-12-25T23:21:36.850Z,83.60
2022-12-25T23:26:40.301Z,82.72
2022-12-25T23:31:53.652Z,83.27
2022-12-25T23:36:57.475Z,82.34
2022-12-25T23:42:01.472Z,82.41
2022-12-25T23:47:06.731Z,81.89
2022-12-25T23:52:12.362Z,82.21
2022-12-25T23:57:15.786Z,81.57
